createdAt,value
2022-11-24T00:01:19.991Z,10.20
2022-11-24T00:03:53.476Z,10.20
2022-11-24T00:06:22.958Z,10.20
2022-11-24T00:08:51.424Z,10.10
2022-11-24T00:11:20.961Z,10.20
2022-11-24T00:13:49.403Z,10.10
2022-11-24T00:16:19.645Z,10.20
2022-11-24T00:18:49.642Z,10.00
2022-11-24T00:21:19.011Z,10.30
2022-11-24T00:23:50.397Z,10.10
2022-11-24T00:26:20.279Z,10.10
2022-11-24T00:28:49.913Z,10.10
2022-11-24T00:31:20.144Z,10.10
2022-11-24T00:33:49.759Z,10.00
2022-11-24T00:36:19.092Z,10.20
2022-11-24T00:38:49.079Z,10.20
2022-11-24T00:41:17.132Z,10.10
2022-11-24T00:43:45.190Z,10.10
2022-11-24T00:46:13.403Z,10.10
2022-11-24T00:48:41.536Z,10.10
2022-11-24T00:51:11.206Z,9.90
2022-11-24T00:53:39.717Z,10.00
2022-11-24T00:56:10.229Z,10.10
2022-11-24T00:58:39.106Z,10.10
2022-11-24T01:01:09.348Z,10.00
2022-11-24T01:03:37.628Z,10.00
2022-11-24T01:06:07.688Z,10.00
2022-11-24T01:08:37.523Z,10.10
2022-11-24T01:11:16.306Z,10.00
2022-11-24T01:13:46.292Z,10.00
2022-11-24T01:16:20.606Z,10.00
2022-11-24T01:18:50.838Z,10.00
2022-11-24T01:21:20.179Z,10.10
2022-11-24T01:23:48.258Z,10.00
2022-11-24T01:26:20.181Z,10.10
2022-11-24T01:28:48.685Z,10.20
2022-11-24T01:31:17.546Z,10.10
2022-11-24T01:33:45.646Z,10.10
2022-11-24T01:36:13.629Z,10.10
2022-11-24T01:38:41.720Z,10.10
2022-11-24T01:41:12.988Z,10.10
2022-11-24T01:43:43.015Z,10.10
2022-11-24T01:46:20.660Z,10.10
2022-11-24T01:48:56.112Z,10.10
2022-11-24T01:51:26.839Z,10.20
2022-11-24T01:54:01.468Z,10.10
2022-11-24T01:56:31.433Z,10.10
2022-11-24T01:59:03.861Z,10.10
2022-11-24T02:01:33.271Z,10.00
2022-11-24T02:04:04.160Z,10.10
2022-11-24T02:06:34.327Z,10.10
2022-11-24T02:09:08.147Z,10.00
2022-11-24T02:11:39.682Z,10.00
2022-11-24T02:14:12.790Z,9.90
2022-11-24T02:16:44.019Z,10.00
2022-11-24T02:19:19.438Z,10.10
2022-11-24T02:21:47.727Z,9.90
2022-11-24T02:24:22.417Z,10.00
2022-11-24T02:26:52.105Z,10.00
2022-11-24T02:29:20.875Z,10.00
2022-11-24T02:31:52.254Z,9.90
2022-11-24T02:34:20.595Z,10.10
2022-11-24T02:36:48.625Z,9.90
2022-11-24T02:39:17.167Z,9.90
2022-11-24T02:41:48.643Z,9.90
2022-11-24T02:44:20.711Z,9.90
2022-11-24T02:46:49.007Z,9.90
2022-11-24T02:49:17.371Z,9.90
2022-11-24T02:51:46.013Z,10.00
2022-11-24T02:54:14.203Z,9.90
2022-11-24T02:56:42.223Z,10.00
2022-11-24T02:59:10.288Z,10.10
2022-11-24T03:01:40.017Z,10.10
2022-11-24T03:04:08.211Z,10.20
2022-11-24T03:06:38.856Z,10.30
2022-11-24T03:09:07.196Z,10.20
2022-11-24T03:11:36.504Z,10.20
2022-11-24T03:14:05.365Z,10.20
2022-11-24T03:16:33.602Z,10.20
2022-11-24T03:19:03.426Z,10.10
2022-11-24T03:21:31.735Z,10.20
2022-11-24T03:24:00.281Z,10.10
2022-11-24T03:26:28.481Z,10.20
2022-11-24T03:28:57.318Z,10.20
2022-11-24T03:31:26.051Z,10.20
2022-11-24T03:33:54.156Z,10.10
2022-11-24T03:36:23.598Z,10.10
2022-11-24T03:38:51.739Z,10.10
2022-11-24T03:41:19.763Z,10.10
2022-11-24T03:43:47.874Z,9.90
2022-11-24T03:46:16.208Z,10.10
2022-11-24T03:48:44.368Z,10.20
2022-11-24T03:51:12.739Z,10.10
2022-11-24T03:53:42.251Z,10.10
2022-11-24T03:56:10.411Z,10.00
2022-11-24T03:58:40.296Z,10.00
2022-11-24T04:01:08.429Z,10.00
2022-11-24T04:03:36.570Z,10.00
2022-11-24T04:06:04.768Z,9.90
2022-11-24T04:08:32.868Z,9.80
2022-11-24T04:11:02.442Z,9.70
2022-11-24T04:13:29.431Z,9.70
2022-11-24T04:15:57.856Z,9.60
2022-11-24T04:18:25.805Z,9.50
2022-11-24T04:20:56.801Z,9.40
2022-11-24T04:23:24.665Z,9.30
2022-11-24T04:25:52.610Z,9.30
2022-11-24T04:28:22.046Z,9.10
2022-11-24T04:30:50.106Z,9.30
2022-11-24T04:33:18.101Z,9.10
2022-11-24T04:35:46.065Z,9.10
2022-11-24T04:38:13.965Z,9.00
2022-11-24T04:41:03.255Z,9.00
2022-11-24T04:43:39.142Z,9.20
2022-11-24T04:46:12.257Z,8.90
2022-11-24T04:48:40.206Z,9.00
2022-11-24T04:51:08.812Z,8.90
2022-11-24T04:53:36.693Z,8.90
2022-11-24T04:56:06.012Z,9.00
2022-11-24T04:58:35.511Z,8.90
2022-11-24T05:01:07.138Z,8.90
2022-11-24T05:03:35.163Z,8.90
2022-11-24T05:06:03.490Z,8.90
2022-11-24T05:08:31.442Z,8.90
2022-11-24T05:11:04.456Z,8.90
2022-11-24T05:13:32.617Z,8.90
2022-11-24T05:16:02.051Z,8.90
2022-11-24T05:18:30.178Z,8.90
2022-11-24T05:20:59.533Z,8.90
2022-11-24T05:23:27.877Z,8.90
2022-11-24T05:25:55.846Z,9.00
2022-11-24T05:28:23.845Z,9.00
2022-11-24T05:31:01.096Z,9.00
2022-11-24T05:33:33.264Z,9.10
2022-11-24T05:36:03.138Z,9.00
2022-11-24T05:38:31.461Z,9.10
2022-11-24T05:41:07.599Z,9.20
2022-11-24T05:43:36.273Z,9.20
2022-11-24T05:46:04.340Z,9.20
2022-11-24T05:48:33.748Z,9.20
2022-11-24T05:51:06.431Z,9.20
2022-11-24T05:53:37.172Z,9.30
2022-11-24T05:56:05.475Z,9.30
2022-11-24T05:58:33.387Z,9.30
2022-11-24T06:01:01.474Z,9.40
2022-11-24T06:03:29.450Z,9.30
2022-11-24T06:05:58.748Z,9.30
2022-11-24T06:08:30.891Z,9.30
2022-11-24T06:11:17.141Z,9.30
2022-11-24T06:13:46.047Z,9.20
2022-11-24T06:16:14.905Z,9.30
2022-11-24T06:18:43.003Z,9.30
2022-11-24T06:21:12.597Z,9.30
2022-11-24T06:23:41.074Z,9.40
2022-11-24T06:26:09.295Z,9.30
2022-11-24T06:28:37.481Z,9.30
2022-11-24T06:31:07.043Z,9.40
2022-11-24T06:33:35.971Z,9.30
2022-11-24T06:36:05.816Z,9.50
2022-11-24T06:38:48.473Z,9.40
2022-11-24T06:41:18.087Z,9.50
2022-11-24T06:43:47.574Z,9.30
2022-11-24T06:46:15.593Z,9.50
2022-11-24T06:48:45.739Z,9.50
2022-11-24T06:51:17.097Z,9.50
2022-11-24T06:53:46.983Z,9.50
2022-11-24T06:56:19.166Z,9.50
2022-11-24T06:58:49.031Z,9.70
2022-11-24T07:01:17.228Z,9.60
2022-11-24T07:03:45.420Z,9.60
2022-11-24T07:06:13.618Z,9.60
2022-11-24T07:08:41.731Z,9.70
2022-11-24T07:11:15.503Z,9.70
2022-11-24T07:13:44.145Z,9.70
2022-11-24T07:16:14.724Z,9.60
2022-11-24T07:18:43.088Z,9.70
2022-11-24T07:21:11.717Z,9.80
2022-11-24T07:23:40.155Z,9.60
2022-11-24T07:26:11.420Z,9.70
2022-11-24T07:28:39.762Z,9.60
2022-11-24T07:31:08.573Z,9.60
2022-11-24T07:33:37.199Z,9.70
2022-11-24T07:36:07.164Z,9.80
2022-11-24T07:38:35.961Z,9.70
2022-11-24T07:41:05.238Z,9.60
2022-11-24T07:43:36.200Z,9.60
2022-11-24T07:46:05.248Z,9.60
2022-11-24T07:48:33.345Z,9.50
2022-11-24T07:51:01.812Z,9.60
2022-11-24T07:53:30.051Z,9.60
2022-11-24T07:56:00.650Z,9.60
2022-11-24T07:58:32.731Z,9.60
2022-11-24T08:01:10.727Z,9.60
2022-11-24T08:03:39.129Z,9.50
2022-11-24T08:06:25.419Z,9.60
2022-11-24T08:08:56.656Z,9.50
2022-11-24T08:11:25.127Z,9.50
2022-11-24T08:13:53.329Z,9.40
2022-11-24T08:16:22.881Z,9.60
2022-11-24T08:18:51.936Z,9.50
2022-11-24T08:21:20.554Z,9.50
2022-11-24T08:23:48.795Z,9.50
2022-11-24T08:26:19.443Z,9.60
2022-11-24T08:28:54.174Z,9.60
2022-11-24T08:31:24.878Z,9.60
2022-11-24T08:33:56.015Z,9.70
2022-11-24T08:36:26.782Z,9.70
2022-11-24T08:39:04.324Z,9.60
2022-11-24T08:41:35.721Z,9.60
2022-11-24T08:44:08.265Z,9.80
2022-11-24T08:46:38.090Z,10.00
2022-11-24T08:49:07.220Z,9.90
2022-11-24T08:51:35.482Z,9.90
2022-11-24T08:54:06.676Z,10.00
2022-11-24T08:56:34.928Z,10.10
2022-11-24T08:59:03.882Z,10.10
2022-11-24T09:01:32.244Z,10.10
2022-11-24T09:04:01.863Z,10.20
2022-11-24T09:06:31.458Z,10.10
2022-11-24T09:09:00.640Z,10.20
2022-11-24T09:11:29.320Z,10.30
2022-11-24T09:13:57.835Z,10.20
2022-11-24T09:16:28.657Z,10.10
2022-11-24T09:18:57.756Z,10.40
2022-11-24T09:21:38.182Z,10.20
2022-11-24T09:24:07.819Z,10.40
2022-11-24T09:26:40.641Z,10.30
2022-11-24T09:29:14.427Z,10.30
2022-11-24T09:31:42.781Z,10.40
2022-11-24T09:34:14.744Z,10.50
2022-11-24T09:36:44.407Z,10.40
2022-11-24T09:39:12.538Z,10.40
2022-11-24T09:42:01.910Z,10.40
2022-11-24T09:44:46.667Z,10.50
2022-11-24T09:47:21.894Z,10.50
2022-11-24T09:49:56.600Z,10.50
2022-11-24T09:52:40.017Z,10.50
2022-11-24T09:55:28.676Z,10.70
2022-11-24T09:58:07.329Z,10.50
2022-11-24T10:00:37.666Z,10.40
2022-11-24T10:03:15.812Z,10.50
2022-11-24T10:05:44.558Z,10.50
2022-11-24T10:08:27.514Z,10.50
2022-11-24T10:11:03.145Z,10.60
2022-11-24T10:13:59.145Z,10.70
2022-11-24T10:16:47.667Z,10.70
2022-11-24T10:19:37.678Z,10.50
2022-11-24T10:22:27.203Z,10.70
2022-11-24T10:25:10.452Z,10.80
2022-11-24T10:27:46.777Z,10.80
2022-11-24T10:30:21.385Z,10.70
2022-11-24T10:32:51.783Z,10.70
2022-11-24T10:35:48.663Z,10.70
2022-11-24T10:38:30.691Z,10.70
2022-11-24T10:41:06.977Z,10.70
2022-11-24T10:43:35.950Z,10.80
2022-11-24T10:46:12.581Z,10.60
2022-11-24T10:48:45.302Z,10.60
2022-11-24T10:51:46.416Z,10.80
2022-11-24T10:54:20.606Z,10.80
2022-11-24T10:56:53.368Z,10.90
2022-11-24T10:59:28.919Z,10.90
2022-11-24T11:02:01.552Z,10.90
2022-11-24T11:04:32.208Z,10.90
2022-11-24T11:07:27.386Z,11.00
2022-11-24T11:10:22.444Z,11.00
2022-11-24T11:12:56.034Z,11.00
2022-11-24T11:15:26.862Z,11.10
2022-11-24T11:17:59.794Z,11.10
2022-11-24T11:20:30.541Z,11.20
2022-11-24T11:23:01.016Z,11.10
2022-11-24T11:25:33.315Z,11.10
2022-11-24T11:28:28.081Z,11.20
2022-11-24T11:31:18.176Z,11.10
2022-11-24T11:34:09.457Z,11.20
2022-11-24T11:36:45.274Z,11.30
2022-11-24T11:39:26.413Z,11.30
2022-11-24T11:42:04.283Z,11.30
2022-11-24T11:44:40.425Z,11.40
2022-11-24T11:47:19.255Z,11.40
2022-11-24T11:49:57.328Z,11.40
2022-11-24T11:52:52.583Z,11.40
2022-11-24T11:55:49.747Z,11.60
2022-11-24T11:58:35.726Z,11.60
2022-11-24T12:01:16.183Z,11.60
2022-11-24T12:04:05.336Z,11.60
2022-11-24T12:06:52.201Z,11.70
2022-11-24T12:09:40.343Z,11.80
2022-11-24T12:12:29.983Z,11.80
2022-11-24T12:15:10.847Z,11.80
2022-11-24T12:17:45.251Z,12.00
2022-11-24T12:20:33.876Z,11.90
2022-11-24T12:23:14.067Z,11.90
2022-11-24T12:25:52.960Z,11.90
2022-11-24T12:28:33.820Z,12.00
2022-11-24T12:31:09.627Z,12.10
2022-11-24T12:34:11.778Z,11.90
2022-11-24T12:36:53.907Z,12.00
2022-11-24T12:39:58.414Z,12.00
2022-11-24T12:43:30.916Z,12.00
2022-11-24T12:46:14.044Z,12.10
2022-11-24T12:49:23.723Z,12.20
2022-11-24T12:52:33.616Z,12.20
2022-11-24T12:56:09.207Z,12.40
2022-11-24T12:58:45.801Z,12.40
2022-11-24T13:01:30.531Z,12.30
2022-11-24T13:04:08.700Z,12.30
2022-11-24T13:13:11.998Z,12.30
2022-11-24T13:16:36.217Z,12.30
2022-11-24T13:19:23.469Z,12.30
2022-11-24T13:22:51.581Z,12.30
2022-11-24T13:25:23.598Z,12.30
2022-11-24T13:27:53.744Z,12.40
2022-11-24T13:30:56.762Z,12.30
2022-11-24T13:33:40.911Z,12.50
2022-11-24T13:36:32.745Z,12.30
2022-11-24T13:39:01.577Z,12.30
2022-11-24T13:42:42.992Z,12.30
2022-11-24T13:45:01.875Z,12.30
2022-11-24T13:47:35.636Z,12.20
2022-11-24T13:50:06.167Z,12.20
2022-11-24T13:52:48.225Z,12.20
2022-11-24T13:55:30.179Z,12.20
2022-11-24T13:58:01.522Z,12.20
2022-11-24T14:00:31.953Z,12.20
2022-11-24T14:03:04.613Z,12.30
2022-11-24T14:05:39.470Z,12.30
2022-11-24T14:08:17.154Z,12.30
2022-11-24T14:10:45.216Z,12.40
2022-11-24T14:13:34.499Z,12.30
2022-11-24T14:16:07.436Z,12.40
2022-11-24T14:18:36.775Z,12.40
2022-11-24T14:21:23.674Z,12.40
2022-11-24T14:23:55.534Z,12.30
2022-11-24T14:26:25.365Z,12.40
2022-11-24T14:28:54.852Z,12.20
2022-11-24T14:31:25.623Z,12.30
2022-11-24T14:34:15.094Z,12.30
2022-11-24T14:36:43.781Z,12.30
2022-11-24T14:39:17.744Z,12.30
2022-11-24T14:41:53.237Z,12.20
2022-11-24T14:44:24.611Z,12.20
2022-11-24T14:47:01.604Z,12.20
2022-11-24T14:49:29.987Z,12.00
2022-11-24T14:52:02.679Z,12.10
2022-11-24T14:54:33.110Z,12.10
2022-11-24T14:57:04.151Z,12.00
2022-11-24T14:59:36.105Z,12.10
2022-11-24T15:02:24.390Z,12.00
2022-11-24T15:05:03.179Z,12.00
2022-11-24T15:07:31.879Z,11.90
2022-11-24T15:10:02.501Z,11.70
2022-11-24T15:12:34.912Z,11.80
2022-11-24T15:15:05.292Z,11.90
2022-11-24T15:17:34.444Z,11.70
2022-11-24T15:20:10.809Z,11.70
2022-11-24T15:22:41.558Z,11.70
2022-11-24T15:25:32.336Z,11.70
2022-11-24T15:28:00.568Z,11.60
2022-11-24T15:30:29.815Z,11.60
2022-11-24T15:32:59.372Z,11.50
2022-11-24T15:35:30.636Z,11.50
2022-11-24T15:37:58.762Z,11.50
2022-11-24T15:40:26.786Z,11.40
2022-11-24T15:43:01.937Z,11.40
2022-11-24T15:45:35.795Z,11.40
2022-11-24T15:48:03.787Z,11.40
2022-11-24T15:50:31.703Z,11.50
2022-11-24T15:52:59.931Z,11.40
2022-11-24T15:55:27.976Z,11.30
2022-11-24T15:57:57.864Z,11.40
2022-11-24T16:00:26.091Z,11.30
2022-11-24T16:02:54.604Z,11.50
2022-11-24T16:05:22.644Z,11.40
2022-11-24T16:07:51.150Z,11.30
2022-11-24T16:10:25.809Z,11.30
2022-11-24T16:12:53.720Z,11.20
2022-11-24T16:15:22.995Z,11.30
2022-11-24T16:17:51.028Z,11.30
2022-11-24T16:20:19.359Z,11.20
2022-11-24T16:22:47.547Z,11.30
2022-11-24T16:25:16.157Z,11.20
2022-11-24T16:27:44.311Z,11.10
2022-11-24T16:30:14.049Z,11.20
2022-11-24T16:32:43.499Z,11.30
2022-11-24T16:35:11.629Z,11.30
2022-11-24T16:37:39.964Z,11.30
2022-11-24T16:40:11.061Z,11.30
2022-11-24T16:42:39.003Z,11.20
2022-11-24T16:45:07.907Z,11.20
2022-11-24T16:47:41.711Z,11.20
2022-11-24T16:50:12.556Z,11.30
2022-11-24T16:52:40.525Z,11.30
2022-11-24T16:55:09.617Z,11.20
2022-11-24T16:57:37.593Z,11.20
2022-11-24T17:00:06.501Z,11.20
2022-11-24T17:02:35.293Z,11.20
2022-11-24T17:05:03.575Z,11.20
2022-11-24T17:07:34.029Z,11.20
2022-11-24T17:10:02.022Z,11.20
2022-11-24T17:12:30.086Z,11.20
2022-11-24T17:15:30.480Z,11.10
2022-11-24T17:18:08.732Z,11.30
2022-11-24T17:20:36.044Z,11.20
2022-11-24T17:23:05.607Z,11.10
2022-11-24T17:25:33.707Z,11.10
2022-11-24T17:28:01.657Z,11.10
2022-11-24T17:30:29.614Z,11.10
2022-11-24T17:32:58.380Z,11.10
2022-11-24T17:35:26.477Z,10.90
2022-11-24T17:37:56.519Z,11.10
2022-11-24T17:40:28.776Z,11.00
2022-11-24T17:42:59.480Z,11.00
2022-11-24T17:45:27.755Z,11.00
2022-11-24T17:47:56.409Z,11.00
2022-11-24T17:50:26.283Z,11.00
2022-11-24T17:52:54.706Z,11.00
2022-11-24T17:55:22.786Z,11.00
2022-11-24T17:57:52.462Z,11.00
2022-11-24T18:00:21.046Z,10.90
2022-11-24T18:02:49.092Z,10.90
2022-11-24T18:05:17.518Z,10.90
2022-11-24T18:07:45.559Z,10.90
2022-11-24T18:10:13.463Z,10.90
2022-11-24T18:12:41.463Z,10.90
2022-11-24T18:15:11.767Z,10.90
2022-11-24T18:17:39.827Z,10.90
2022-11-24T18:20:09.030Z,10.90
2022-11-24T18:23:03.894Z,10.80
2022-11-24T18:25:25.972Z,10.80
2022-11-24T18:27:53.906Z,10.80
2022-11-24T18:30:23.202Z,10.70
2022-11-24T18:32:51.249Z,10.80
2022-11-24T18:35:19.365Z,10.70
2022-11-24T18:37:47.506Z,10.80
2022-11-24T18:40:15.826Z,10.90
2022-11-24T18:42:43.842Z,10.80
2022-11-24T18:45:12.568Z,10.90
2022-11-24T18:47:42.216Z,10.80
2022-11-24T18:50:10.731Z,10.80
2022-11-24T18:52:38.805Z,10.80
2022-11-24T18:55:08.243Z,10.80
2022-11-24T18:57:36.204Z,10.80
2022-11-24T19:00:05.214Z,10.80
2022-11-24T19:02:33.370Z,10.70
2022-11-24T19:05:03.161Z,10.70
2022-11-24T19:07:31.276Z,10.70
2022-11-24T19:09:59.466Z,10.70
2022-11-24T19:12:27.495Z,10.70
2022-11-24T19:14:56.129Z,10.80
2022-11-24T19:17:24.152Z,10.60
2022-11-24T19:19:52.534Z,10.60
2022-11-24T19:22:22.216Z,10.60
2022-11-24T19:24:50.824Z,10.70
2022-11-24T19:27:21.022Z,10.60
2022-11-24T19:29:49.340Z,10.50
2022-11-24T19:32:19.451Z,10.60
2022-11-24T19:34:47.592Z,10.60
2022-11-24T19:37:16.115Z,10.60
2022-11-24T19:39:45.444Z,10.50
2022-11-24T19:42:13.391Z,10.50
2022-11-24T19:44:41.435Z,10.60
2022-11-24T19:47:09.332Z,10.50
2022-11-24T19:49:37.512Z,10.50
2022-11-24T19:52:05.901Z,10.50
2022-11-24T19:54:35.522Z,10.50
2022-11-24T19:57:05.121Z,10.50
2022-11-24T19:59:33.149Z,10.50
2022-11-24T20:02:02.551Z,10.60
2022-11-24T20:04:32.902Z,10.60
2022-11-24T20:07:01.322Z,10.60
2022-11-24T20:09:29.488Z,10.60
2022-11-24T20:11:58.658Z,10.60
2022-11-24T20:14:28.227Z,10.60
2022-11-24T20:16:56.555Z,10.60
2022-11-24T20:19:26.615Z,10.70
2022-11-24T20:21:54.908Z,10.80
2022-11-24T20:24:24.687Z,10.70
2022-11-24T20:26:56.498Z,10.70
2022-11-24T20:29:25.082Z,10.70
2022-11-24T20:31:56.839Z,10.70
2022-11-24T20:34:26.215Z,10.70
2022-11-24T20:36:54.653Z,10.70
2022-11-24T20:39:26.383Z,10.60
2022-11-24T20:41:55.555Z,10.70
2022-11-24T20:44:25.957Z,10.90
2022-11-24T20:46:56.805Z,10.80
2022-11-24T20:49:25.928Z,10.70
2022-11-24T20:51:55.352Z,10.70
2022-11-24T20:54:25.802Z,10.70
2022-11-24T20:56:53.919Z,10.70
2022-11-24T20:59:23.595Z,10.70
2022-11-24T21:01:55.085Z,10.80
2022-11-24T21:04:26.569Z,10.80
2022-11-24T21:06:55.351Z,10.80
2022-11-24T21:09:29.636Z,10.80
2022-11-24T21:11:58.078Z,10.80
2022-11-24T21:14:30.042Z,10.80
2022-11-24T21:17:01.572Z,10.90
2022-11-24T21:19:31.327Z,10.80
2022-11-24T21:22:01.946Z,10.90
2022-11-24T21:24:31.065Z,11.10
2022-11-24T21:26:59.167Z,11.00
2022-11-24T21:29:27.186Z,11.10
2022-11-24T21:31:55.549Z,11.00
2022-11-24T21:34:23.708Z,11.10
2022-11-24T21:36:55.018Z,11.00
2022-11-24T21:39:23.620Z,11.10
2022-11-24T21:41:51.703Z,11.10
2022-11-24T21:44:19.694Z,11.10
2022-11-24T21:46:52.623Z,11.10
2022-11-24T21:49:23.920Z,11.10
2022-11-24T21:51:55.983Z,11.10
2022-11-24T21:54:24.752Z,11.00
2022-11-24T21:56:54.292Z,11.10
2022-11-24T21:59:22.801Z,11.20
2022-11-24T22:01:50.813Z,11.10
2022-11-24T22:04:18.819Z,11.10
2022-11-24T22:06:46.898Z,11.10
2022-11-24T22:09:18.528Z,11.10
2022-11-24T22:11:49.106Z,11.20
2022-11-24T22:14:17.274Z,11.20
2022-11-24T22:16:45.444Z,11.20
2022-11-24T22:19:13.526Z,11.30
2022-11-24T22:21:41.577Z,11.30
2022-11-24T22:24:10.020Z,11.20
2022-11-24T22:26:39.487Z,11.30
2022-11-24T22:29:08.521Z,11.30
2022-11-24T22:31:36.752Z,11.20
2022-11-24T22:34:04.924Z,11.20
2022-11-24T22:36:33.035Z,11.20
2022-11-24T22:39:03.401Z,11.20
2022-11-24T22:41:32.811Z,11.10
2022-11-24T22:44:02.586Z,11.20
2022-11-24T22:46:32.643Z,11.20
2022-11-24T22:49:01.883Z,11.20
2022-11-24T22:51:32.451Z,11.20
2022-11-24T22:54:02.714Z,11.10
2022-11-24T22:56:32.554Z,11.10
2022-11-24T22:59:03.053Z,11.10
2022-11-24T23:01:33.612Z,11.00
2022-11-24T23:04:03.636Z,11.00
2022-11-24T23:06:33.516Z,10.90
2022-11-24T23:09:03.284Z,10.90
2022-11-24T23:11:37.490Z,11.10
2022-11-24T23:14:09.861Z,11.00
2022-11-24T23:16:37.876Z,11.10
2022-11-24T23:19:06.119Z,10.90
2022-11-24T23:21:38.490Z,10.90
2022-11-24T23:24:08.185Z,10.90
2022-11-24T23:26:37.855Z,10.80
2022-11-24T23:29:07.422Z,10.80
2022-11-24T23:31:35.593Z,10.80
2022-11-24T23:34:05.033Z,10.80
2022-11-24T23:36:33.653Z,10.80
2022-11-24T23:39:05.971Z,10.70
2022-11-24T23:41:34.238Z,10.90
2022-11-24T23:44:02.132Z,10.80
2022-11-24T23:46:31.961Z,10.90
2022-11-24T23:49:00.108Z,10.80
2022-11-24T23:51:29.486Z,10.80
2022-11-24T23:53:58.447Z,10.80
2022-11-24T23:56:28.532Z,10.80
2022-11-24T23:58:56.647Z,10.80
